Etusivu
METAR-TAF:

METAR-TAF

Lentoasemat :

Dupage Airport

West Chicago, Illinois, Yhdysvallat

Leveyspiiri: 41-53-47N, Pituuspiiri: 088-15-04W, korkeus merenpinnasta: 231 m

Tämänhetkinen sää

Tämä raportti tehtiin 14 minuuttia sitten, kello 02.52 UTC
Tuuli 7 kn etelästä
Lämpötila 9°C
Kosteus 71%
Ilmanpaine 1013 hPa
Näkyvyys: 16.1 km
selkeää

METAR: KDPA 190252Z 17007KT 10SM CLR 09/04 A2991 RMK AO2 SLP130 T00940039 53001

Aika: 22:06 (03:06 UTC)

Sääennuste

Tämä raportti tehtiin 18 minuuttia sitten, kello 02.48 UTC
Ennuste voimassa 19. päivästä klo 03 UTC - 19. päivään klo 24 UTC
Tuuli 8 kn etelästä/kaakosta
Näkyvyys: 10 km
Muutamia pilviä 15000 ft:n korkeudessa
Hajanaisia pilviä 25000 ft:n korkeudessa
From 19. päivästä klo 1700 UTC
Tuuli 10 kn etelästä
Näkyvyys: 10 km
Hajonneita pilviä 15000 ft:n korkeudessa

TAF: KDPA 190248Z 1903/1924 16008KT P6SM FEW150 SCT250 FM191700 19010KT P6SM BKN150

Säähavainnot ja -ennusteet yli 4000 lentoasemalta (METAR- ja TAF-raportit).

Käytössä olevat sääasemat on merkitty karttaan keltaisilla ja punaisilla pisteillä.

Aseta hiiri pisteen päälle nähdäksesi sääaseman nimen.

Klikkaa sitten nähdäksesi säähavainnot ja -ennusteet.

Kartan vaihtaminen: klikkaa mustalla rastilla varustettuja vihreitä pisteitä, niin voit zoomata sisään; viivalla varustettua vihreää pistettä, niin voit zoomata ulos tai vihreitä nuolia, niin pääset viereisille kartoille.


METAR-TAF: